Terminal Aerodrome Forecast
Issued by NWS Lake Charles, LA

Home | Current Version | Previous Version | Text Only | Print | Product List | Glossary On
Versions: 1 2 3 4 5 6 7 8 9 10 11 12 13 14
000
FTUS44 KLCH 270520
TAFLFT
TAF
KLFT 270520Z 2706/2806 VRB03KT P6SM SCT250
      TEMPO 2711/2713 4SM BR
     FM271400 04005KT P6SM VCSH SCT025
     FM271600 04007KT P6SM VCTS SCT035 BKN050CB
     FM280100 VRB03KT P6SM SKC=

USA.gov is the U.S. government's official web portal to all federal, state and local government web resources and services.